Airfield :
LOGIN :

Register | Disclaimer

   EN    FR    IT 

 










Legend :    VFR   Marginal VFR   IFR   Intensive IFR   Very Intensive IFR
Visi :
Ceiling :
>= 8 km
>= 3000ft
5 to 8 km
1000 to 3000 ft
1500m to 5 km
500 to 1000 ft
800 to 1500m
200 to 500 ft
< 800m
< 200 ft
Symbols :   Thunderstorms  Fog  Heavy snow  Heavy precipitations  Wind > 20 kt
SIGMETs :     Misc.  Thunderstorms  Icing  Turbulence  Mountain Waves  Volcanic Ashes







- Airport Elevation : 0 ft


ETEB - Ansbach Army Heliport

CURRENT METAR :
  • 280258Z AUTO 09004KT 9999 FEW140 SCT160 16/15 A2960 RMK AO2 SLP018 T01610154 57018

EXPIRED METARs :
  • 280158Z AUTO 08004KT 9999 FEW150 17/15 A2961 RMK AO2 SLP021 T01650153
  • 280058Z AUTO 07004KT 9999 FEW080 SCT140 17/16 A2964 RMK AO2 SLP030 T01680156

TAF TAF ETEB
Valid from the 27 at 21:00 until the 29 at 03:00 UTC


272116Z 2721/2903 VRB06KT 9999 FEW080 SCT100 QNH2962INS
TEMPO 2722/2805 5000 BR
BECMG 2807/2808 24012KT 9999 SCT030 SCT080 QNH2950INS
TEMPO 2813/2817 26010G20KT 8000 -SHRA BKN030
BECMG 2822/2823 27009KT 9999 BKN020 BKN080 610809 QNH2947INS TX23/2813Z TN15/2803Z
No reported NOTAMs for that airfield.
1 SIGMET reported for the Langen FIR (EDGG) :
 
Embedded thunderstorms
EDGG SIGMET 1 VALID 280200/280400 EDZF
EDGG LANGEN FIR EMBD TS FCST WI N5045 E00757 - N4859 E01009 - N4844 E00936 - N4805 E00931 - N4801 E00905 - N5026 E00638 - N5045 E00757 TOP FL400 MOV NE NC=



MET'MAP, your aeronautical weather chart ! - Copyright ORBIFLY December 2007 - Disclaimer

ORBIFLY MET'MAP TEAM :

Programming & Development : Alexandra Zaïnal
Concept & Development : Baudouin d'Aumeries
Co-Development & Prog : Marc-Olivier Méhu
Technical & hardware support : Manuel Goepfert

Contact : metmap@orbifly.com




SOURCES & CREDITS :

   NOAA